createdAt,value
2019-05-26T00:02:25.173Z,70.72
2019-05-26T00:04:56.289Z,70.66
2019-05-26T00:07:30.508Z,70.77
2019-05-26T00:10:00.006Z,70.83
2019-05-26T00:12:30.991Z,71.23
2019-05-26T00:15:02.081Z,71.01
2019-05-26T00:17:45.395Z,70.94
2019-05-26T00:20:16.562Z,71.34
2019-05-26T00:22:47.590Z,71.41
2019-05-26T00:25:18.752Z,72.19
2019-05-26T00:27:49.856Z,71.71
2019-05-26T00:30:21.439Z,71.37
2019-05-26T00:32:52.763Z,71.35
2019-05-26T00:35:23.830Z,70.89
2019-05-26T00:37:54.835Z,71.34
2019-05-26T00:40:27.364Z,70.65
2019-05-26T00:42:59.433Z,71.21
2019-05-26T00:45:30.748Z,71.39
2019-05-26T00:48:01.981Z,71.08
2019-05-26T00:50:33.077Z,71.34
2019-05-26T00:53:04.137Z,71.31
2019-05-26T00:55:35.313Z,71.39
2019-05-26T00:58:06.509Z,71.62
2019-05-26T01:00:42.195Z,71.67
2019-05-26T01:03:14.477Z,71.33
2019-05-26T01:05:45.517Z,70.94
2019-05-26T01:08:16.520Z,70.36
2019-05-26T01:10:47.652Z,70.46
2019-05-26T01:13:18.729Z,70.27
2019-05-26T01:15:49.834Z,70.22
2019-05-26T01:18:20.887Z,69.95
2019-05-26T01:20:51.912Z,70.00
2019-05-26T01:23:23.015Z,70.01
2019-05-26T01:25:54.035Z,70.45
2019-05-26T01:28:25.091Z,70.45
2019-05-26T01:30:56.239Z,70.69
2019-05-26T01:33:27.991Z,70.82
2019-05-26T01:36:00.231Z,70.64
2019-05-26T01:38:31.980Z,70.51
2019-05-26T01:41:03.221Z,70.76
2019-05-26T01:43:34.260Z,70.96
2019-05-26T01:46:05.452Z,70.87
2019-05-26T01:48:36.463Z,71.35
2019-05-26T01:51:07.525Z,70.88
2019-05-26T01:53:38.576Z,71.16
2019-05-26T01:56:09.715Z,71.52
2019-05-26T01:58:40.705Z,70.85
2019-05-26T02:01:11.872Z,70.99
2019-05-26T02:03:42.868Z,70.96
2019-05-26T02:06:13.882Z,70.71
2019-05-26T02:08:44.868Z,70.91
2019-05-26T02:11:15.894Z,70.89
2019-05-26T02:13:46.887Z,70.78
2019-05-26T02:16:18.060Z,71.29
2019-05-26T02:18:50.033Z,71.01
2019-05-26T02:21:21.058Z,70.92
2019-05-26T02:23:52.029Z,70.89
2019-05-26T02:26:23.126Z,70.71
2019-05-26T02:28:54.104Z,70.85
2019-05-26T02:31:25.227Z,70.77
2019-05-26T02:33:56.271Z,70.72
2019-05-26T02:36:28.582Z,70.85
2019-05-26T02:39:02.740Z,70.61
2019-05-26T02:41:33.383Z,70.14
2019-05-26T02:44:04.657Z,70.36
2019-05-26T02:46:35.679Z,70.16
2019-05-26T02:49:06.814Z,69.72
2019-05-26T02:51:37.889Z,69.73
2019-05-26T02:54:09.134Z,69.94
2019-05-26T02:56:40.927Z,70.29
2019-05-26T02:59:12.034Z,70.06
2019-05-26T03:02:00.784Z,69.98
2019-05-26T03:04:16.133Z,70.42
2019-05-26T03:06:49.855Z,70.45
2019-05-26T03:09:23.898Z,70.58
2019-05-26T03:11:56.867Z,70.67
2019-05-26T03:14:30.869Z,70.63
2019-05-26T03:17:03.241Z,71.04
2019-05-26T03:19:36.011Z,70.97
2019-05-26T03:22:07.115Z,70.92
2019-05-26T03:24:41.247Z,70.90
2019-05-26T03:27:12.366Z,70.91
2019-05-26T03:29:43.446Z,70.67
2019-05-26T03:32:14.605Z,70.58
2019-05-26T03:34:45.623Z,70.32
2019-05-26T03:37:16.730Z,70.79
2019-05-26T03:39:48.021Z,70.70
2019-05-26T03:42:19.279Z,70.62
2019-05-26T03:44:50.338Z,70.88
2019-05-26T03:47:21.384Z,70.56
2019-05-26T03:49:52.362Z,70.32
2019-05-26T03:52:23.483Z,70.30
2019-05-26T03:54:54.466Z,70.56
2019-05-26T03:57:25.507Z,70.53
2019-05-26T03:59:56.540Z,70.51
2019-05-26T04:02:27.626Z,70.29
2019-05-26T04:04:59.869Z,70.05
2019-05-26T04:07:31.028Z,70.49
2019-05-26T04:10:05.171Z,70.72
2019-05-26T04:12:34.752Z,70.22
2019-05-26T04:15:06.222Z,69.97
2019-05-26T04:17:37.249Z,70.34
2019-05-26T04:20:09.194Z,70.44
2019-05-26T04:22:40.326Z,70.19
2019-05-26T04:25:11.526Z,70.59
2019-05-26T04:27:42.539Z,70.82
2019-05-26T04:30:13.785Z,70.62
2019-05-26T04:32:44.839Z,70.21
2019-05-26T04:35:16.100Z,70.35
2019-05-26T04:37:47.136Z,70.35
2019-05-26T04:40:26.441Z,70.19
2019-05-26T04:42:51.085Z,70.22
2019-05-26T04:45:22.189Z,70.90
2019-05-26T04:47:53.401Z,71.19
2019-05-26T04:50:24.662Z,71.38
2019-05-26T04:53:06.090Z,71.53
2019-05-26T04:55:28.476Z,71.50
2019-05-26T04:58:00.030Z,71.20
2019-05-26T05:00:31.737Z,71.94
2019-05-26T05:03:02.933Z,71.75
2019-05-26T05:05:34.065Z,71.73
2019-05-26T05:08:05.270Z,71.60
2019-05-26T05:10:42.322Z,71.59
2019-05-26T05:13:09.205Z,71.81
2019-05-26T05:15:40.249Z,71.84
2019-05-26T05:18:11.423Z,72.05
2019-05-26T05:20:42.815Z,72.27
2019-05-26T05:23:13.839Z,72.03
2019-05-26T05:25:45.123Z,71.98
2019-05-26T05:28:16.326Z,71.90
2019-05-26T05:30:47.389Z,71.88
2019-05-26T05:33:18.421Z,71.57
2019-05-26T05:35:49.540Z,71.55
2019-05-26T05:38:20.549Z,72.10
2019-05-26T05:40:59.690Z,71.68
2019-05-26T05:43:24.334Z,71.72
2019-05-26T05:45:55.376Z,71.82
2019-05-26T05:48:26.376Z,71.76
2019-05-26T05:50:57.468Z,71.97
2019-05-26T05:53:28.474Z,71.99
2019-05-26T05:56:00.162Z,72.01
2019-05-26T05:58:31.412Z,71.50
2019-05-26T06:01:02.467Z,71.52
2019-05-26T06:03:33.461Z,71.53
2019-05-26T06:06:04.574Z,71.86
2019-05-26T06:08:36.759Z,71.33
2019-05-26T06:11:16.600Z,71.23
2019-05-26T06:13:40.578Z,70.77
2019-05-26T06:16:11.999Z,71.20
2019-05-26T06:18:43.000Z,71.11
2019-05-26T06:21:14.115Z,70.42
2019-05-26T06:23:45.226Z,70.38
2019-05-26T06:26:16.343Z,70.79
2019-05-26T06:28:47.420Z,69.90
2019-05-26T06:31:18.548Z,69.99
2019-05-26T06:33:49.643Z,70.34
2019-05-26T06:36:21.163Z,70.88
2019-05-26T06:38:52.238Z,69.98
2019-05-26T06:41:32.861Z,69.64
2019-05-26T06:43:56.991Z,69.75
2019-05-26T06:46:28.013Z,68.74
2019-05-26T06:49:00.137Z,69.12
2019-05-26T06:51:31.975Z,69.43
2019-05-26T06:54:03.248Z,69.78
2019-05-26T06:56:34.360Z,68.84
2019-05-26T06:59:05.897Z,68.02
2019-05-26T07:01:36.919Z,66.00
2019-05-26T07:04:07.973Z,65.64
2019-05-26T07:06:39.000Z,66.77
2019-05-26T07:09:09.988Z,64.80
2019-05-26T07:11:55.600Z,65.43
2019-05-26T07:14:13.686Z,66.55
2019-05-26T07:16:44.881Z,65.57
2019-05-26T07:19:15.893Z,63.86
2019-05-26T07:21:46.987Z,64.62
2019-05-26T07:24:18.007Z,66.01
2019-05-26T07:26:49.068Z,65.29
2019-05-26T07:29:23.171Z,66.32
2019-05-26T07:31:54.265Z,66.57
2019-05-26T07:34:25.442Z,66.01
2019-05-26T07:36:56.514Z,66.24
2019-05-26T07:39:27.505Z,66.95
2019-05-26T07:42:09.278Z,65.99
2019-05-26T07:44:31.242Z,65.01
2019-05-26T07:47:02.274Z,64.91
2019-05-26T07:49:33.263Z,63.81
2019-05-26T07:52:05.392Z,63.47
2019-05-26T07:54:36.381Z,64.35
2019-05-26T07:57:07.505Z,64.28
2019-05-26T07:59:38.513Z,63.76
2019-05-26T08:02:09.686Z,62.09
2019-05-26T08:04:40.664Z,62.34
2019-05-26T08:07:11.770Z,63.63
2019-05-26T08:09:42.793Z,62.19
2019-05-26T08:12:25.452Z,61.86
2019-05-26T08:14:46.597Z,60.76
2019-05-26T08:17:17.616Z,59.80
2019-05-26T08:19:48.616Z,59.44
2019-05-26T08:22:20.692Z,59.31
2019-05-26T08:24:51.673Z,60.55
2019-05-26T08:27:22.703Z,60.46
2019-05-26T08:29:53.763Z,59.69
2019-05-26T08:32:24.796Z,61.03
2019-05-26T08:34:55.983Z,58.79
2019-05-26T08:37:27.150Z,57.78
2019-05-26T08:40:17.259Z,57.75
2019-05-26T08:42:50.539Z,56.90
2019-05-26T08:45:23.196Z,57.80
2019-05-26T08:47:54.492Z,58.77
2019-05-26T08:50:25.664Z,57.58
2019-05-26T08:52:56.719Z,57.21
2019-05-26T08:55:27.885Z,55.32
2019-05-26T08:57:59.009Z,56.28
2019-05-26T09:00:30.685Z,56.34
2019-05-26T09:03:01.781Z,56.66
2019-05-26T09:05:33.616Z,56.57
2019-05-26T09:08:08.096Z,56.86
2019-05-26T09:10:38.946Z,56.22
2019-05-26T09:13:10.230Z,55.79
2019-05-26T09:15:42.908Z,56.23
2019-05-26T09:18:14.131Z,56.00
2019-05-26T09:20:45.281Z,56.57
2019-05-26T09:23:16.472Z,56.46
2019-05-26T09:25:47.564Z,56.43
2019-05-26T09:28:18.789Z,56.12
2019-05-26T09:30:49.954Z,55.56
2019-05-26T09:33:21.162Z,53.83
2019-05-26T09:35:52.636Z,54.09
2019-05-26T09:38:23.936Z,53.95
2019-05-26T09:40:55.046Z,54.59
2019-05-26T09:43:26.196Z,54.75
2019-05-26T09:45:57.323Z,55.31
2019-05-26T09:48:28.490Z,55.97
2019-05-26T09:51:00.906Z,56.78
2019-05-26T09:53:34.223Z,55.85
2019-05-26T09:56:05.481Z,54.95
2019-05-26T09:58:36.580Z,55.07
2019-05-26T10:01:07.757Z,54.36
2019-05-26T10:03:38.866Z,54.20
2019-05-26T10:06:09.963Z,54.88
2019-05-26T10:08:41.126Z,55.58
2019-05-26T10:11:12.345Z,55.60
2019-05-26T10:13:43.616Z,55.47
2019-05-26T10:16:14.776Z,55.24
2019-05-26T10:18:46.073Z,55.23
2019-05-26T10:21:17.213Z,55.73
2019-05-26T10:23:48.562Z,55.40
2019-05-26T10:26:19.804Z,54.42
2019-05-26T10:28:50.974Z,54.90
2019-05-26T10:31:22.094Z,54.38
2019-05-26T10:33:53.415Z,55.16
2019-05-26T10:36:24.730Z,54.82
2019-05-26T10:38:56.149Z,54.33
2019-05-26T10:41:28.185Z,54.89
2019-05-26T10:43:59.534Z,54.72
2019-05-26T10:46:30.912Z,53.87
2019-05-26T10:49:02.245Z,53.16
2019-05-26T10:51:34.618Z,54.29
2019-05-26T10:54:06.054Z,53.54
2019-05-26T10:56:37.168Z,53.78
2019-05-26T10:59:08.669Z,53.87
2019-05-26T11:01:39.781Z,55.35
2019-05-26T11:04:11.162Z,54.55
2019-05-26T11:06:42.323Z,54.33
2019-05-26T11:09:13.767Z,55.65
2019-05-26T11:11:44.927Z,56.61
2019-05-26T11:14:16.426Z,54.67
2019-05-26T11:16:47.538Z,54.37
2019-05-26T11:19:18.797Z,54.98
2019-05-26T11:21:49.913Z,55.21
2019-05-26T11:24:21.282Z,55.05
2019-05-26T11:26:52.418Z,55.07
2019-05-26T11:29:24.216Z,55.43
2019-05-26T11:31:55.327Z,55.04
2019-05-26T11:34:26.585Z,54.13
2019-05-26T11:36:57.713Z,54.66
2019-05-26T11:39:28.955Z,54.67
2019-05-26T11:42:12.780Z,55.72
2019-05-26T11:44:33.827Z,55.66
2019-05-26T11:47:04.940Z,55.47
2019-05-26T11:49:36.462Z,55.60
2019-05-26T11:52:07.557Z,55.68
2019-05-26T11:54:38.879Z,54.48
2019-05-26T11:57:10.059Z,54.63
2019-05-26T11:59:41.265Z,56.20
2019-05-26T12:02:12.478Z,56.67
2019-05-26T12:04:43.925Z,54.02
2019-05-26T12:07:15.082Z,54.17
2019-05-26T12:09:46.233Z,53.23
2019-05-26T12:12:17.266Z,53.99
2019-05-26T12:15:00.670Z,55.14
2019-05-26T12:17:31.730Z,51.67
2019-05-26T12:20:05.271Z,53.81
2019-05-26T12:22:35.871Z,53.42
2019-05-26T12:25:08.119Z,53.59
2019-05-26T12:27:39.159Z,53.29
2019-05-26T12:30:12.565Z,53.83
2019-05-26T12:32:43.636Z,52.77
2019-05-26T12:35:15.938Z,53.22
2019-05-26T12:37:48.515Z,52.06
2019-05-26T12:40:19.963Z,52.13
2019-05-26T12:42:51.267Z,51.25
2019-05-26T12:45:22.410Z,52.09
2019-05-26T12:47:53.434Z,52.95
2019-05-26T12:50:24.592Z,51.51
2019-05-26T12:52:55.690Z,52.27
2019-05-26T12:55:26.947Z,51.25
2019-05-26T12:57:58.074Z,51.80
2019-05-26T13:00:45.260Z,52.99
2019-05-26T13:03:02.009Z,52.01
2019-05-26T13:05:33.069Z,52.42
2019-05-26T13:08:04.237Z,53.12
2019-05-26T13:10:36.606Z,53.62
2019-05-26T13:13:07.653Z,52.42
2019-05-26T13:15:38.652Z,52.08
2019-05-26T13:18:09.796Z,53.18
2019-05-26T13:20:40.904Z,53.13
2019-05-26T13:23:11.986Z,52.38
2019-05-26T13:25:43.012Z,50.82
2019-05-26T13:28:15.008Z,50.54
2019-05-26T13:30:46.064Z,51.63
2019-05-26T13:33:17.090Z,51.92
2019-05-26T13:35:48.155Z,53.09
2019-05-26T13:38:19.182Z,52.92
2019-05-26T13:40:50.236Z,52.35
2019-05-26T13:43:21.351Z,51.83
2019-05-26T13:45:52.379Z,53.52
2019-05-26T13:48:23.669Z,53.80
2019-05-26T13:50:54.766Z,51.90
2019-05-26T13:53:26.000Z,51.95
2019-05-26T13:55:57.167Z,52.96
2019-05-26T13:58:28.305Z,51.73
2019-05-26T14:00:59.324Z,51.31
2019-05-26T14:03:31.294Z,51.87
2019-05-26T14:06:02.607Z,52.43
2019-05-26T14:08:33.736Z,50.67
2019-05-26T14:11:04.876Z,49.31
2019-05-26T14:13:37.328Z,49.31
2019-05-26T14:16:08.466Z,49.29
2019-05-26T14:18:41.241Z,50.20
2019-05-26T14:21:12.289Z,51.88
2019-05-26T14:23:43.429Z,51.24
2019-05-26T14:26:14.801Z,49.84
2019-05-26T14:28:45.920Z,51.01
2019-05-26T14:31:16.941Z,50.01
2019-05-26T14:33:47.960Z,48.49
2019-05-26T14:36:19.122Z,49.34
2019-05-26T14:38:50.252Z,51.11
2019-05-26T14:41:21.314Z,49.38
2019-05-26T14:43:52.467Z,49.22
2019-05-26T14:46:23.549Z,49.26
2019-05-26T14:48:55.643Z,50.07
2019-05-26T14:51:26.746Z,49.56
2019-05-26T14:53:58.048Z,48.56
2019-05-26T14:56:29.048Z,49.49
2019-05-26T14:59:00.277Z,48.58
2019-05-26T15:01:31.519Z,47.39
2019-05-26T15:04:02.566Z,49.83
2019-05-26T15:06:33.562Z,48.82
2019-05-26T15:09:06.478Z,48.60
2019-05-26T15:11:38.000Z,46.93
2019-05-26T15:14:09.215Z,46.77
2019-05-26T15:16:40.204Z,47.62
2019-05-26T15:19:11.248Z,48.08
2019-05-26T15:21:42.244Z,47.48
2019-05-26T15:24:13.271Z,48.30
2019-05-26T15:26:44.281Z,48.02
2019-05-26T15:29:15.511Z,48.13
2019-05-26T15:31:46.549Z,47.53
2019-05-26T15:34:17.596Z,46.11
2019-05-26T15:36:48.665Z,47.13
2019-05-26T15:39:19.877Z,47.40
2019-05-26T15:41:50.992Z,48.75
2019-05-26T15:44:22.138Z,47.97
2019-05-26T15:46:53.218Z,47.52
2019-05-26T15:49:25.570Z,48.39
2019-05-26T15:51:56.597Z,47.50
2019-05-26T15:54:27.739Z,45.63
2019-05-26T15:57:00.029Z,46.45
2019-05-26T15:59:31.969Z,46.26
2019-05-26T16:02:03.237Z,46.08
2019-05-26T16:04:34.364Z,46.10
2019-05-26T16:07:05.879Z,46.27
2019-05-26T16:09:36.934Z,46.25
2019-05-26T16:12:08.353Z,46.79
2019-05-26T16:14:39.384Z,47.11
2019-05-26T16:17:10.391Z,46.49
2019-05-26T16:19:41.452Z,46.35
2019-05-26T16:22:12.879Z,45.46
2019-05-26T16:24:44.024Z,46.48
2019-05-26T16:27:19.210Z,46.79
2019-05-26T16:29:48.009Z,46.64
2019-05-26T16:32:19.193Z,47.23
2019-05-26T16:34:50.408Z,46.60
2019-05-26T16:37:21.404Z,46.91
2019-05-26T16:39:55.825Z,46.76
2019-05-26T16:42:25.495Z,45.99
2019-05-26T16:44:56.590Z,46.42
2019-05-26T16:47:27.573Z,46.98
2019-05-26T16:49:58.666Z,46.81
2019-05-26T16:52:29.744Z,46.38
2019-05-26T16:55:01.989Z,46.97
2019-05-26T16:57:34.010Z,46.96
2019-05-26T17:00:07.051Z,46.35
2019-05-26T17:02:39.370Z,46.20
2019-05-26T17:05:10.763Z,45.33
2019-05-26T17:07:41.767Z,45.70
2019-05-26T17:10:12.976Z,45.57
2019-05-26T17:12:44.007Z,46.13
2019-05-26T17:15:15.316Z,45.99
2019-05-26T17:17:46.341Z,46.15
2019-05-26T17:20:19.165Z,46.31
2019-05-26T17:22:50.182Z,46.24
2019-05-26T17:25:21.392Z,46.18
2019-05-26T17:27:52.436Z,46.34
2019-05-26T17:30:24.236Z,46.28
2019-05-26T17:32:55.345Z,46.84
2019-05-26T17:35:26.464Z,46.94
2019-05-26T17:37:57.537Z,47.08
2019-05-26T17:40:28.656Z,47.09
2019-05-26T17:42:59.650Z,46.63
2019-05-26T17:45:32.103Z,46.92
2019-05-26T17:48:03.129Z,47.53
2019-05-26T17:50:34.448Z,47.91
2019-05-26T17:53:05.569Z,48.45
2019-05-26T17:55:36.609Z,48.27
2019-05-26T17:58:07.604Z,48.29
2019-05-26T18:00:40.031Z,47.78
2019-05-26T18:03:11.133Z,47.73
2019-05-26T18:05:42.258Z,48.12
2019-05-26T18:08:13.283Z,48.51
2019-05-26T18:10:44.500Z,49.13
2019-05-26T18:13:15.531Z,50.47
2019-05-26T18:15:46.850Z,50.80
2019-05-26T18:18:17.853Z,50.79
2019-05-26T18:20:48.930Z,50.76
2019-05-26T18:23:19.961Z,50.38
2019-05-26T18:25:52.076Z,49.96
2019-05-26T18:28:23.165Z,50.54
2019-05-26T18:30:54.449Z,49.92
2019-05-26T18:33:25.536Z,50.02
2019-05-26T18:35:56.772Z,50.82
2019-05-26T18:38:27.863Z,50.57
2019-05-26T18:40:58.963Z,51.06
2019-05-26T18:43:30.132Z,51.30
2019-05-26T18:46:02.319Z,51.46
2019-05-26T18:48:33.314Z,52.27
2019-05-26T18:51:04.534Z,52.24
2019-05-26T18:53:35.601Z,52.57
2019-05-26T18:56:06.709Z,52.45
2019-05-26T18:58:37.833Z,53.59
2019-05-26T19:01:09.073Z,55.16
2019-05-26T19:03:40.752Z,54.47
2019-05-26T19:06:11.905Z,54.70
2019-05-26T19:08:42.944Z,53.86
2019-05-26T19:11:14.257Z,54.51
2019-05-26T19:13:45.255Z,54.80
2019-05-26T19:16:16.387Z,55.46
2019-05-26T19:18:47.475Z,55.91
2019-05-26T19:21:18.617Z,56.29
2019-05-26T19:23:49.613Z,56.39
2019-05-26T19:26:20.745Z,56.63
2019-05-26T19:28:51.831Z,56.80
2019-05-26T19:31:23.008Z,56.86
2019-05-26T19:33:55.096Z,57.38
2019-05-26T19:36:26.141Z,57.26
2019-05-26T19:38:57.258Z,57.38
2019-05-26T19:41:28.301Z,57.90
2019-05-26T19:43:59.274Z,58.18
2019-05-26T19:46:30.339Z,58.06
2019-05-26T19:49:02.337Z,58.52
2019-05-26T19:51:33.422Z,58.64
2019-05-26T19:54:04.525Z,58.46
2019-05-26T19:56:35.660Z,58.48
2019-05-26T19:59:07.104Z,58.94
2019-05-26T20:01:38.427Z,59.15
2019-05-26T20:04:09.451Z,59.25
2019-05-26T20:06:43.911Z,58.71
2019-05-26T20:09:14.307Z,58.47
2019-05-26T20:11:45.436Z,58.64
2019-05-26T20:14:16.528Z,59.11
2019-05-26T20:16:47.828Z,58.68
2019-05-26T20:19:19.014Z,58.69
2019-05-26T20:21:50.049Z,58.83
2019-05-26T20:24:21.159Z,59.10
2019-05-26T20:26:52.209Z,59.26
2019-05-26T20:29:23.312Z,59.62
2019-05-26T20:31:55.457Z,59.83
2019-05-26T20:34:26.461Z,59.68
2019-05-26T20:36:57.650Z,59.76
2019-05-26T20:39:28.691Z,59.76
2019-05-26T20:41:59.809Z,59.81
2019-05-26T20:44:30.804Z,60.56
2019-05-26T20:47:02.562Z,60.07
2019-05-26T20:49:45.027Z,60.40
2019-05-26T20:52:06.473Z,60.16
2019-05-26T20:54:37.538Z,60.42
2019-05-26T20:57:08.654Z,60.83
2019-05-26T20:59:39.744Z,60.62
2019-05-26T21:02:10.979Z,61.15
2019-05-26T21:04:42.999Z,60.90
2019-05-26T21:07:14.405Z,61.21
2019-05-26T21:09:45.890Z,61.04
2019-05-26T21:12:17.995Z,60.95
2019-05-26T21:14:48.994Z,60.81
2019-05-26T21:17:20.029Z,60.94
2019-05-26T21:19:51.294Z,61.29
2019-05-26T21:22:22.290Z,61.59
2019-05-26T21:24:53.475Z,62.04
2019-05-26T21:27:24.500Z,62.13
2019-05-26T21:29:55.546Z,62.56
2019-05-26T21:32:26.954Z,62.16
2019-05-26T21:34:59.632Z,62.09
2019-05-26T21:37:30.868Z,62.05
2019-05-26T21:40:02.786Z,62.47
2019-05-26T21:42:33.769Z,62.09
2019-05-26T21:45:05.211Z,62.43
2019-05-26T21:47:36.263Z,62.48
2019-05-26T21:50:09.446Z,62.46
2019-05-26T21:52:40.630Z,62.07
2019-05-26T21:55:12.298Z,62.62
2019-05-26T21:57:43.289Z,62.65
2019-05-26T22:00:18.910Z,62.30
2019-05-26T22:02:51.602Z,62.50
2019-05-26T22:05:22.779Z,62.40
2019-05-26T22:07:53.954Z,62.73
2019-05-26T22:10:25.121Z,62.64
2019-05-26T22:12:56.123Z,62.71
2019-05-26T22:15:27.301Z,62.76
2019-05-26T22:17:58.520Z,62.70
2019-05-26T22:20:29.547Z,62.75
2019-05-26T22:23:00.541Z,62.54
2019-05-26T22:25:32.898Z,62.92
2019-05-26T22:28:03.975Z,62.91
2019-05-26T22:30:35.065Z,63.02
2019-05-26T22:33:06.383Z,62.78
2019-05-26T22:35:37.413Z,62.58
2019-05-26T22:38:08.400Z,62.56
2019-05-26T22:40:39.497Z,62.61
2019-05-26T22:43:10.514Z,62.42
2019-05-26T22:45:41.624Z,63.10
2019-05-26T22:48:12.624Z,62.88
2019-05-26T22:50:43.979Z,62.76
2019-05-26T22:53:14.969Z,62.84
2019-05-26T22:55:46.064Z,62.74
2019-05-26T22:58:17.070Z,63.00
2019-05-26T23:00:48.251Z,63.08
2019-05-26T23:03:19.236Z,62.97
2019-05-26T23:05:50.285Z,62.96
2019-05-26T23:08:22.227Z,62.75
2019-05-26T23:10:53.379Z,63.07
2019-05-26T23:13:24.357Z,63.01
2019-05-26T23:15:55.546Z,63.51
2019-05-26T23:18:26.546Z,63.34
2019-05-26T23:20:57.736Z,63.32
2019-05-26T23:23:28.737Z,63.12
2019-05-26T23:25:59.874Z,63.13
2019-05-26T23:28:30.867Z,63.36
2019-05-26T23:31:02.975Z,63.57
2019-05-26T23:33:34.048Z,63.54
2019-05-26T23:36:05.178Z,63.68
2019-05-26T23:38:36.194Z,63.89
2019-05-26T23:41:07.238Z,63.62
2019-05-26T23:43:39.208Z,63.74
2019-05-26T23:46:10.349Z,63.65
2019-05-26T23:48:41.329Z,63.79
2019-05-26T23:51:12.480Z,63.92
2019-05-26T23:53:44.507Z,64.03
2019-05-26T23:56:15.688Z,63.90
2019-05-26T23:58:46.684Z,64.05
